createdAt,value
2023-04-28T00:00:56.514Z,101453.81
2023-04-28T00:04:58.140Z,101451.28
2023-04-28T00:09:00.207Z,101445.91
2023-04-28T00:13:02.545Z,101436.03
2023-04-28T00:17:04.696Z,101443.88
2023-04-28T00:21:06.559Z,101438.44
2023-04-28T00:25:09.049Z,101436.56
2023-04-28T00:29:10.943Z,101433.66
2023-04-28T00:33:12.856Z,101436.91
2023-04-28T00:37:14.309Z,101427.13
2023-04-28T00:41:15.952Z,101427.03
2023-04-28T00:45:17.525Z,101421.31
2023-04-28T00:49:19.067Z,101411.84
2023-04-28T00:53:21.291Z,101410.66
2023-04-28T00:57:23.296Z,101402.91
2023-04-28T01:01:25.261Z,101399.50
2023-04-28T01:05:28.343Z,101406.09
2023-04-28T01:09:29.871Z,101403.63
2023-04-28T01:13:31.342Z,101396.06
2023-04-28T01:17:33.076Z,101391.63
2023-04-28T01:21:34.743Z,101392.25
2023-04-28T01:25:36.124Z,101390.25
2023-04-28T01:29:37.528Z,101388.78
2023-04-28T01:33:38.952Z,101375.66
2023-04-28T01:37:41.130Z,101384.22
2023-04-28T01:41:42.721Z,101380.47
2023-04-28T01:45:44.392Z,101377.41
2023-04-28T01:49:48.011Z,101375.47
2023-04-28T01:53:49.509Z,101375.97
2023-04-28T01:57:51.083Z,101371.19
2023-04-28T02:01:52.510Z,101367.16
2023-04-28T02:05:54.274Z,101363.56
2023-04-28T02:09:55.833Z,101367.16
2023-04-28T02:13:57.258Z,101370.84
2023-04-28T02:17:58.770Z,101366.63
2023-04-28T02:22:00.375Z,101363.16
2023-04-28T02:26:03.592Z,101361.41
2023-04-28T02:30:06.484Z,101352.81
2023-04-28T02:34:07.974Z,101352.00
2023-04-28T02:38:09.852Z,101351.78
2023-04-28T02:42:11.390Z,101347.72
2023-04-28T02:46:12.889Z,101335.53
2023-04-28T02:50:14.337Z,101344.06
2023-04-28T02:54:16.240Z,101340.38
2023-04-28T02:58:18.331Z,101340.69
2023-04-28T03:02:22.849Z,101340.59
2023-04-28T03:06:24.462Z,101335.41
2023-04-28T03:10:26.232Z,101327.16
2023-04-28T03:14:27.707Z,101330.13
2023-04-28T03:18:29.396Z,101326.34
2023-04-28T03:22:31.574Z,101326.38
2023-04-28T03:26:33.423Z,101322.38
2023-04-28T03:30:34.887Z,101314.97
2023-04-28T03:34:36.824Z,101317.09
2023-04-28T03:38:38.819Z,101319.13
2023-04-28T03:42:40.461Z,101318.63
2023-04-28T03:46:42.089Z,101311.59
2023-04-28T03:50:45.459Z,101312.81
2023-04-28T03:54:47.023Z,101312.22
2023-04-28T03:58:48.534Z,101302.56
2023-04-28T04:02:50.273Z,101302.97
2023-04-28T04:06:52.236Z,101295.75
2023-04-28T04:10:54.912Z,101291.97
2023-04-28T04:14:56.733Z,101294.81
2023-04-28T04:18:58.424Z,101287.28
2023-04-28T04:22:59.884Z,101286.97
2023-04-28T04:27:01.302Z,101280.25
2023-04-28T04:31:03.229Z,101286.66
2023-04-28T04:35:05.028Z,101286.47
2023-04-28T04:39:06.563Z,101283.31
2023-04-28T04:43:07.954Z,101285.56
2023-04-28T04:47:09.423Z,101285.44
2023-04-28T04:51:11.420Z,101279.34
2023-04-28T04:55:12.986Z,101282.72
2023-04-28T04:59:14.488Z,101266.09
2023-04-28T05:03:16.361Z,101270.66
2023-04-28T05:07:18.033Z,101267.31
2023-04-28T05:11:19.772Z,101260.97
2023-04-28T05:15:21.290Z,101256.59
2023-04-28T05:19:23.272Z,101270.47
2023-04-28T05:23:25.337Z,101254.97
2023-04-28T05:27:26.826Z,101257.41
2023-04-28T05:31:28.334Z,101244.69
2023-04-28T05:35:31.659Z,101243.41
2023-04-28T05:39:33.159Z,101242.78
2023-04-28T05:43:34.601Z,101241.47
2023-04-28T05:47:36.211Z,101244.94
2023-04-28T05:51:38.551Z,101231.72
2023-04-28T05:55:40.324Z,101234.81
2023-04-28T05:59:42.081Z,101223.78
2023-04-28T06:03:44.987Z,101217.44
2023-04-28T06:07:48.334Z,101219.16
2023-04-28T06:11:51.539Z,101215.13
2023-04-28T06:15:53.092Z,101220.41
2023-04-28T06:19:55.757Z,101213.53
2023-04-28T06:23:57.282Z,101217.25
2023-04-28T06:27:58.791Z,101203.97
2023-04-28T06:32:00.250Z,101207.69
2023-04-28T06:36:01.718Z,101199.25
2023-04-28T06:40:03.516Z,101201.66
2023-04-28T06:44:05.493Z,101206.75
2023-04-28T06:48:08.197Z,101195.94
2023-04-28T06:52:09.920Z,101193.81
2023-04-28T06:56:11.903Z,101187.22
2023-04-28T07:00:14.381Z,101182.84
2023-04-28T07:04:16.734Z,101183.81
2023-04-28T07:08:18.543Z,101171.31
2023-04-28T07:12:20.818Z,101168.09
2023-04-28T07:16:22.437Z,101169.69
2023-04-28T07:20:23.986Z,101158.38
2023-04-28T07:24:27.246Z,101156.84
2023-04-28T07:28:28.773Z,101144.59
2023-04-28T07:32:30.216Z,101142.28
2023-04-28T07:36:32.023Z,101140.47
2023-04-28T07:40:33.644Z,101136.19
2023-04-28T07:44:35.310Z,101128.28
2023-04-28T07:48:36.835Z,101134.03
2023-04-28T07:52:38.357Z,101124.72
2023-04-28T07:56:39.829Z,101126.75
2023-04-28T08:00:41.373Z,101130.00
2023-04-28T08:04:43.060Z,101135.84
2023-04-28T08:08:44.807Z,101120.94
2023-04-28T08:12:46.386Z,101135.22
2023-04-28T08:16:48.431Z,101123.09
2023-04-28T08:20:49.983Z,101117.75
2023-04-28T08:24:51.475Z,101124.97
2023-04-28T08:28:53.268Z,101102.25
2023-04-28T08:32:54.810Z,101103.03
2023-04-28T08:36:56.357Z,101104.06
2023-04-28T08:40:57.787Z,101102.72
2023-04-28T08:45:01.981Z,101095.94
2023-04-28T08:49:06.387Z,101097.81
2023-04-28T08:53:08.341Z,101086.47
2023-04-28T08:57:10.989Z,101080.84
2023-04-28T09:01:12.476Z,101075.63
2023-04-28T09:05:14.591Z,101076.06
2023-04-28T09:09:23.248Z,101069.19
2023-04-28T09:13:26.135Z,101063.00
2023-04-28T09:17:27.816Z,101059.03
2023-04-28T09:21:29.310Z,101064.13
2023-04-28T09:25:31.598Z,101047.38
2023-04-28T09:29:33.729Z,101051.34
2023-04-28T09:33:35.292Z,101040.16
2023-04-28T09:37:37.711Z,101047.25
2023-04-28T09:41:43.880Z,101024.00
2023-04-28T09:45:45.992Z,101020.63
2023-04-28T09:49:58.280Z,101026.22
2023-04-28T09:54:01.793Z,101024.06
2023-04-28T09:58:07.433Z,101027.84
2023-04-28T10:02:35.830Z,101021.97
2023-04-28T10:06:31.226Z,101007.88
2023-04-28T10:10:33.591Z,101021.16
2023-04-28T10:14:37.596Z,101010.13
2023-04-28T10:18:39.416Z,101003.31
2023-04-28T10:22:58.436Z,101001.13
2023-04-28T10:27:09.543Z,100996.94
2023-04-28T10:31:21.101Z,100988.25
2023-04-28T10:35:28.402Z,100986.69
2023-04-28T10:39:29.856Z,100973.44
2023-04-28T10:43:40.026Z,100971.03
2023-04-28T10:48:06.129Z,100965.78
2023-04-28T10:52:34.825Z,100960.56
2023-04-28T10:56:36.250Z,100960.97
2023-04-28T11:00:38.378Z,100950.66
2023-04-28T11:05:12.761Z,100952.59
2023-04-28T11:09:14.592Z,100945.41
2023-04-28T11:13:33.751Z,100942.97
2023-04-28T11:17:42.132Z,100944.97
2023-04-28T11:21:43.619Z,100951.06
2023-04-28T11:25:57.969Z,100952.19
2023-04-28T11:30:01.650Z,100938.63
2023-04-28T11:34:08.098Z,100935.44
2023-04-28T11:38:09.526Z,100937.44
2023-04-28T11:42:11.433Z,100929.03
2023-04-28T11:46:23.288Z,100927.81
2023-04-28T11:50:38.102Z,100923.41
2023-04-28T11:54:42.431Z,100915.84
2023-04-28T11:58:44.113Z,100914.59
2023-04-28T12:02:45.771Z,100912.56
2023-04-28T12:06:47.542Z,100906.97
2023-04-28T12:11:13.757Z,100914.53
2023-04-28T12:15:15.274Z,100905.50
2023-04-28T12:19:17.826Z,100895.00
2023-04-28T12:23:35.692Z,100900.09
2023-04-28T12:27:41.156Z,100884.13
2023-04-28T12:31:53.246Z,100886.56
2023-04-28T12:35:56.935Z,100878.63
2023-04-28T12:39:58.598Z,100882.25
2023-04-28T12:44:00.277Z,100878.63
2023-04-28T12:48:02.126Z,100867.78
2023-04-28T12:52:05.322Z,100859.41
2023-04-28T12:56:06.787Z,100861.81
2023-04-28T13:00:09.353Z,100854.22
2023-04-28T13:04:11.044Z,100857.41
2023-04-28T13:08:14.106Z,100860.63
2023-04-28T13:12:15.586Z,100862.59
2023-04-28T13:16:17.269Z,100852.19
2023-04-28T13:20:18.731Z,100848.97
2023-04-28T13:24:20.204Z,100842.13
2023-04-28T13:28:22.109Z,100836.94
2023-04-28T13:32:23.613Z,100827.41
2023-04-28T13:36:25.751Z,100828.56
2023-04-28T13:40:31.141Z,100824.22
2023-04-28T13:44:32.564Z,100823.81
2023-04-28T13:48:36.414Z,100820.16
2023-04-28T13:52:37.909Z,100826.94
2023-04-28T13:56:39.548Z,100821.75
2023-04-28T14:00:41.142Z,100823.66
2023-04-28T14:04:48.160Z,100808.50
2023-04-28T14:08:50.845Z,100809.34
2023-04-28T14:12:52.317Z,100802.50
2023-04-28T14:16:53.843Z,100807.56
2023-04-28T14:20:55.824Z,100797.63
2023-04-28T14:24:57.395Z,100795.19
2023-04-28T14:29:00.516Z,100789.66
2023-04-28T14:33:02.076Z,100788.06
2023-04-28T14:37:03.596Z,100787.72
2023-04-28T14:41:05.070Z,100785.72
2023-04-28T14:45:08.963Z,100784.84
2023-04-28T14:49:11.078Z,100788.75
2023-04-28T14:53:12.579Z,100792.50
2023-04-28T14:57:14.235Z,100782.06
2023-04-28T15:01:16.211Z,100781.59
2023-04-28T15:05:17.819Z,100775.00
2023-04-28T15:09:19.278Z,100769.03
2023-04-28T15:13:22.043Z,100761.91
2023-04-28T15:17:23.714Z,100751.91
2023-04-28T15:21:25.226Z,100760.31
2023-04-28T15:25:26.813Z,100765.56
2023-04-28T15:29:28.353Z,100763.75
2023-04-28T15:33:29.831Z,100755.09
2023-04-28T15:37:37.305Z,100746.41
2023-04-28T15:41:38.821Z,100746.47
2023-04-28T15:45:40.453Z,100735.88
2023-04-28T15:49:41.915Z,100738.31
2023-04-28T15:53:43.350Z,100736.00
2023-04-28T15:57:46.900Z,100732.41
2023-04-28T16:01:48.371Z,100730.59
2023-04-28T16:05:49.850Z,100736.41
2023-04-28T16:09:53.465Z,100728.47
2023-04-28T16:13:54.956Z,100723.69
2023-04-28T16:17:56.866Z,100717.63
2023-04-28T16:21:58.499Z,100712.88
2023-04-28T16:26:00.221Z,100709.69
2023-04-28T16:30:01.805Z,100704.66
2023-04-28T16:34:04.305Z,100710.22
2023-04-28T16:38:05.977Z,100710.56
2023-04-28T16:42:08.049Z,100714.63
2023-04-28T16:46:10.043Z,100713.75
2023-04-28T16:50:12.194Z,100710.53
2023-04-28T16:54:13.626Z,100706.63
2023-04-28T16:58:15.179Z,100704.06
2023-04-28T17:02:16.802Z,100697.31
2023-04-28T17:06:18.326Z,100702.47
2023-04-28T17:10:19.949Z,100700.31
2023-04-28T17:14:21.620Z,100698.28
2023-04-28T17:18:23.741Z,100690.44
2023-04-28T17:22:25.193Z,100684.34
2023-04-28T17:26:28.528Z,100683.84
2023-04-28T17:30:30.021Z,100683.00
2023-04-28T17:34:31.584Z,100689.41
2023-04-28T17:38:33.004Z,100688.66
2023-04-28T17:42:34.444Z,100683.25
2023-04-28T17:46:37.725Z,100681.75
2023-04-28T17:50:39.303Z,100671.25
2023-04-28T17:54:41.120Z,100668.47
2023-04-28T17:58:42.575Z,100669.19
2023-04-28T18:02:44.082Z,100669.56
2023-04-28T18:06:46.111Z,100672.28
2023-04-28T18:10:47.622Z,100670.72
2023-04-28T18:14:50.389Z,100676.69
2023-04-28T18:18:51.949Z,100676.19
2023-04-28T18:22:53.479Z,100674.25
2023-04-28T18:26:54.951Z,100681.03
2023-04-28T18:30:56.418Z,100669.69
2023-04-28T18:34:57.925Z,100667.53
2023-04-28T18:38:59.367Z,100667.47
2023-04-28T18:43:04.216Z,100664.34
2023-04-28T18:47:05.770Z,100655.16
2023-04-28T18:51:07.508Z,100650.31
2023-04-28T18:55:09.500Z,100647.09
2023-04-28T18:59:11.511Z,100651.03
2023-04-28T19:03:13.526Z,100647.00
2023-04-28T19:07:15.106Z,100653.84
2023-04-28T19:11:16.630Z,100650.09
2023-04-28T19:15:18.725Z,100646.44
2023-04-28T19:19:20.501Z,100649.47
2023-04-28T19:23:22.299Z,100655.22
2023-04-28T19:27:23.763Z,100646.06
2023-04-28T19:31:25.568Z,100644.09
2023-04-28T19:35:27.115Z,100640.50
